sensor_id;sensor_type;location;lat;lon;timestamp;temperature;humidity
19561;DHT22;9927;47.792;10.616;2023-02-28T04:01:43;-2.20;99.90
19561;DHT22;9927;47.792;10.616;2023-02-28T04:04:13;-2.20;99.90
19561;DHT22;9927;47.792;10.616;2023-02-28T04:06:41;-2.20;99.90
19561;DHT22;9927;47.792;10.616;2023-02-28T04:09:11;-2.10;99.90
19561;DHT22;9927;47.792;10.616;2023-02-28T04:11:50;-2.30;99.90
19561;DHT22;9927;47.792;10.616;2023-02-28T04:14:23;-2.20;99.90
19561;DHT22;9927;47.792;10.616;2023-02-28T04:16:51;-2.20;99.90
19561;DHT22;9927;47.792;10.616;2023-02-28T04:19:19;-2.20;99.90
19561;DHT22;9927;47.792;10.616;2023-02-28T04:21:51;-2.30;99.90
19561;DHT22;9927;47.792;10.616;2023-02-28T04:24:24;-2.30;99.90
19561;DHT22;9927;47.792;10.616;2023-02-28T04:26:53;-2.30;99.90
19561;DHT22;9927;47.792;10.616;2023-02-28T04:29:31;-2.30;99.90
19561;DHT22;9927;47.792;10.616;2023-02-28T04:32:00;-2.20;99.90
19561;DHT22;9927;47.792;10.616;2023-02-28T04:34:29;-2.30;99.90
19561;DHT22;9927;47.792;10.616;2023-02-28T04:36:57;-2.40;99.90
19561;DHT22;9927;47.792;10.616;2023-02-28T04:39:41;-2.50;99.90
19561;DHT22;9927;47.792;10.616;2023-02-28T04:42:09;-2.30;99.90
19561;DHT22;9927;47.792;10.616;2023-02-28T04:44:36;-2.30;99.90
19561;DHT22;9927;47.792;10.616;2023-02-28T04:47:04;-2.30;99.90
19561;DHT22;9927;47.792;10.616;2023-02-28T04:49:32;-2.30;99.90
19561;DHT22;9927;47.792;10.616;2023-02-28T04:51:59;-2.30;99.90
19561;DHT22;9927;47.792;10.616;2023-02-28T04:54:26;-2.40;99.90
19561;DHT22;9927;47.792;10.616;2023-02-28T04:56:55;-2.40;99.90
19561;DHT22;9927;47.792;10.616;2023-02-28T04:59:22;-2.30;99.90
19561;DHT22;9927;47.792;10.616;2023-02-28T05:01:50;-2.30;99.90
19561;DHT22;9927;47.792;10.616;2023-02-28T05:04:17;-2.40;99.90
19561;DHT22;9927;47.792;10.616;2023-02-28T05:06:44;-2.40;99.90
19561;DHT22;9927;47.792;10.616;2023-02-28T05:09:11;-2.50;99.90
19561;DHT22;9927;47.792;10.616;2023-02-28T05:11:39;-2.50;99.90
19561;DHT22;9927;47.792;10.616;2023-02-28T05:14:12;-2.50;99.90
19561;DHT22;9927;47.792;10.616;2023-02-28T05:16:39;-2.50;99.90
19561;DHT22;9927;47.792;10.616;2023-02-28T05:19:07;-2.40;99.90
19561;DHT22;9927;47.792;10.616;2023-02-28T05:21:39;-2.40;99.90
19561;DHT22;9927;47.792;10.616;2023-02-28T05:24:10;-2.40;99.90
19561;DHT22;9927;47.792;10.616;2023-02-28T05:26:42;-2.30;99.90
19561;DHT22;9927;47.792;10.616;2023-02-28T05:29:10;-2.40;99.90
19561;DHT22;9927;47.792;10.616;2023-02-28T05:31:38;-2.40;99.90
19561;DHT22;9927;47.792;10.616;2023-02-28T05:34:05;-2.40;99.90
19561;DHT22;9927;47.792;10.616;2023-02-28T05:36:33;-2.20;99.90
19561;DHT22;9927;47.792;10.616;2023-02-28T05:39:00;-2.50;99.90
19561;DHT22;9927;47.792;10.616;2023-02-28T05:41:28;-2.70;99.90
19561;DHT22;9927;47.792;10.616;2023-02-28T05:43:57;-2.70;99.90
19561;DHT22;9927;47.792;10.616;2023-02-28T05:46:24;-2.80;99.90
19561;DHT22;9927;47.792;10.616;2023-02-28T05:48:51;-2.90;99.90
19561;DHT22;9927;47.792;10.616;2023-02-28T05:51:18;-2.90;99.90
19561;DHT22;9927;47.792;10.616;2023-02-28T05:53:46;-2.90;99.90
19561;DHT22;9927;47.792;10.616;2023-02-28T05:56:15;-2.80;99.90
19561;DHT22;9927;47.792;10.616;2023-02-28T05:58:42;-2.70;99.90
19561;DHT22;9927;47.792;10.616;2023-02-28T06:01:21;-2.60;99.90
19561;DHT22;9927;47.792;10.616;2023-02-28T06:03:49;-2.60;99.90
19561;DHT22;9927;47.792;10.616;2023-02-28T06:06:17;-2.60;99.90
19561;DHT22;9927;47.792;10.616;2023-02-28T06:08:44;-2.50;99.90
19561;DHT22;9927;47.792;10.616;2023-02-28T06:11:12;-2.40;99.90
19561;DHT22;9927;47.792;10.616;2023-02-28T06:13:39;-2.30;99.90
19561;DHT22;9927;47.792;10.616;2023-02-28T06:16:10;-2.50;99.90
19561;DHT22;9927;47.792;10.616;2023-02-28T06:18:38;-2.50;99.90
19561;DHT22;9927;47.792;10.616;2023-02-28T06:21:05;-2.60;99.90
19561;DHT22;9927;47.792;10.616;2023-02-28T06:23:32;-2.60;99.90
19561;DHT22;9927;47.792;10.616;2023-02-28T06:26:00;-2.50;99.90
19561;DHT22;9927;47.792;10.616;2023-02-28T06:28:27;-2.50;99.90
19561;DHT22;9927;47.792;10.616;2023-02-28T06:30:54;-2.60;99.90
19561;DHT22;9927;47.792;10.616;2023-02-28T06:33:21;-2.50;99.90
19561;DHT22;9927;47.792;10.616;2023-02-28T06:35:52;-2.50;99.90
19561;DHT22;9927;47.792;10.616;2023-02-28T06:38:19;-2.40;99.90
19561;DHT22;9927;47.792;10.616;2023-02-28T06:40:56;-2.30;99.90
19561;DHT22;9927;47.792;10.616;2023-02-28T06:43:25;-2.30;99.90
19561;DHT22;9927;47.792;10.616;2023-02-28T06:45:55;-2.30;99.90
19561;DHT22;9927;47.792;10.616;2023-02-28T06:48:23;-2.20;99.90
19561;DHT22;9927;47.792;10.616;2023-02-28T06:50:50;-2.20;99.90
19561;DHT22;9927;47.792;10.616;2023-02-28T06:53:18;-2.10;99.90
19561;DHT22;9927;47.792;10.616;2023-02-28T06:55:45;-2.20;99.90
19561;DHT22;9927;47.792;10.616;2023-02-28T06:58:12;-2.30;99.90
19561;DHT22;9927;47.792;10.616;2023-02-28T07:00:42;-2.10;99.90
19561;DHT22;9927;47.792;10.616;2023-02-28T07:03:11;-2.10;99.90
19561;DHT22;9927;47.792;10.616;2023-02-28T07:05:39;-2.00;99.90
19561;DHT22;9927;47.792;10.616;2023-02-28T07:08:06;-2.00;99.90
19561;DHT22;9927;47.792;10.616;2023-02-28T07:10:34;-2.00;99.90
19561;DHT22;9927;47.792;10.616;2023-02-28T07:13:04;-2.00;99.90
19561;DHT22;9927;47.792;10.616;2023-02-28T07:15:32;-2.00;99.90
19561;DHT22;9927;47.792;10.616;2023-02-28T07:17:59;-2.10;99.90
19561;DHT22;9927;47.792;10.616;2023-02-28T07:20:26;-2.10;99.90
19561;DHT22;9927;47.792;10.616;2023-02-28T07:22:53;-2.10;99.90
19561;DHT22;9927;47.792;10.616;2023-02-28T07:25:27;-2.10;99.90
19561;DHT22;9927;47.792;10.616;2023-02-28T07:27:56;-1.90;99.90
19561;DHT22;9927;47.792;10.616;2023-02-28T07:30:23;-1.80;99.90
19561;DHT22;9927;47.792;10.616;2023-02-28T07:32:50;-1.80;99.90
19561;DHT22;9927;47.792;10.616;2023-02-28T07:35:17;-1.70;99.90
19561;DHT22;9927;47.792;10.616;2023-02-28T07:37:46;-1.70;99.90
19561;DHT22;9927;47.792;10.616;2023-02-28T07:40:14;-1.60;99.90
19561;DHT22;9927;47.792;10.616;2023-02-28T07:42:42;-1.60;99.90
19561;DHT22;9927;47.792;10.616;2023-02-28T07:45:10;-1.60;99.90
19561;DHT22;9927;47.792;10.616;2023-02-28T07:47:39;-1.60;99.90
19561;DHT22;9927;47.792;10.616;2023-02-28T07:50:09;-1.60;99.90
19561;DHT22;9927;47.792;10.616;2023-02-28T07:52:37;-1.70;99.90
19561;DHT22;9927;47.792;10.616;2023-02-28T07:55:08;-1.90;99.90
19561;DHT22;9927;47.792;10.616;2023-02-28T07:57:36;-1.90;99.90
19561;DHT22;9927;47.792;10.616;2023-02-28T08:00:06;-2.00;99.90
19561;DHT22;9927;47.792;10.616;2023-02-28T08:02:33;-1.90;99.90
19561;DHT22;9927;47.792;10.616;2023-02-28T08:05:05;-1.80;99.90
19561;DHT22;9927;47.792;10.616;2023-02-28T08:07:32;-1.80;99.90
19561;DHT22;9927;47.792;10.616;2023-02-28T08:10:00;-1.90;99.90
19561;DHT22;9927;47.792;10.616;2023-02-28T08:12:27;-1.90;99.90
19561;DHT22;9927;47.792;10.616;2023-02-28T08:14:55;-1.70;99.90
19561;DHT22;9927;47.792;10.616;2023-02-28T08:17:22;-1.50;99.90
19561;DHT22;9927;47.792;10.616;2023-02-28T08:19:49;-1.40;99.90
19561;DHT22;9927;47.792;10.616;2023-02-28T08:22:17;-1.10;99.90
19561;DHT22;9927;47.792;10.616;2023-02-28T08:24:44;-1.30;99.90
19561;DHT22;9927;47.792;10.616;2023-02-28T08:27:11;-1.20;99.90
19561;DHT22;9927;47.792;10.616;2023-02-28T08:29:39;-1.10;99.90
19561;DHT22;9927;47.792;10.616;2023-02-28T08:32:07;-1.00;99.90
19561;DHT22;9927;47.792;10.616;2023-02-28T08:34:49;-1.30;99.90
19561;DHT22;9927;47.792;10.616;2023-02-28T08:37:16;-1.50;99.90
19561;DHT22;9927;47.792;10.616;2023-02-28T08:39:44;-1.40;99.90
19561;DHT22;9927;47.792;10.616;2023-02-28T08:42:11;-1.10;99.90
19561;DHT22;9927;47.792;10.616;2023-02-28T08:44:38;-1.10;99.90
19561;DHT22;9927;47.792;10.616;2023-02-28T08:47:05;-1.00;99.90
19561;DHT22;9927;47.792;10.616;2023-02-28T08:49:32;-0.70;99.90
19561;DHT22;9927;47.792;10.616;2023-02-28T08:51:59;-0.50;99.90
19561;DHT22;9927;47.792;10.616;2023-02-28T08:54:27;-0.20;99.90
19561;DHT22;9927;47.792;10.616;2023-02-28T08:56:57;-0.30;99.90
19561;DHT22;9927;47.792;10.616;2023-02-28T08:59:24;-0.30;99.90
19561;DHT22;9927;47.792;10.616;2023-02-28T09:01:52;-0.10;99.90
19561;DHT22;9927;47.792;10.616;2023-02-28T09:04:19;0.10;99.90
19561;DHT22;9927;47.792;10.616;2023-02-28T09:06:47;0.10;99.90
19561;DHT22;9927;47.792;10.616;2023-02-28T09:09:16;0.30;99.90
19561;DHT22;9927;47.792;10.616;2023-02-28T09:11:43;0.40;99.90
19561;DHT22;9927;47.792;10.616;2023-02-28T09:14:10;0.30;99.90
19561;DHT22;9927;47.792;10.616;2023-02-28T09:16:37;0.30;99.90
19561;DHT22;9927;47.792;10.616;2023-02-28T09:19:04;0.20;99.90
19561;DHT22;9927;47.792;10.616;2023-02-28T09:21:32;0.30;99.90
19561;DHT22;9927;47.792;10.616;2023-02-28T09:23:59;0.40;99.90
19561;DHT22;9927;47.792;10.616;2023-02-28T09:26:27;0.60;99.90
19561;DHT22;9927;47.792;10.616;2023-02-28T09:29:08;0.80;99.90
19561;DHT22;9927;47.792;10.616;2023-02-28T09:31:36;0.80;99.90
19561;DHT22;9927;47.792;10.616;2023-02-28T09:34:04;0.90;99.90
19561;DHT22;9927;47.792;10.616;2023-02-28T09:36:31;0.90;99.90
19561;DHT22;9927;47.792;10.616;2023-02-28T09:39:11;0.90;99.90
19561;DHT22;9927;47.792;10.616;2023-02-28T09:41:43;0.70;99.90
19561;DHT22;9927;47.792;10.616;2023-02-28T09:47:00;0.70;99.90
19561;DHT22;9927;47.792;10.616;2023-02-28T09:49:36;0.80;99.90
19561;DHT22;9927;47.792;10.616;2023-02-28T09:52:10;0.80;99.90
19561;DHT22;9927;47.792;10.616;2023-02-28T09:54:38;0.90;99.90
19561;DHT22;9927;47.792;10.616;2023-02-28T10:00:23;1.00;99.90
19561;DHT22;9927;47.792;10.616;2023-02-28T10:05:38;0.90;99.90
19561;DHT22;9927;47.792;10.616;2023-02-28T10:08:19;1.00;99.90
19561;DHT22;9927;47.792;10.616;2023-02-28T10:10:55;1.40;99.90
19561;DHT22;9927;47.792;10.616;2023-02-28T10:13:30;1.40;99.90
19561;DHT22;9927;47.792;10.616;2023-02-28T10:16:17;1.20;99.90
19561;DHT22;9927;47.792;10.616;2023-02-28T10:18:50;1.20;99.90
19561;DHT22;9927;47.792;10.616;2023-02-28T10:21:28;1.30;99.90
19561;DHT22;9927;47.792;10.616;2023-02-28T10:24:19;1.40;99.90
19561;DHT22;9927;47.792;10.616;2023-02-28T10:26:48;1.50;99.90
19561;DHT22;9927;47.792;10.616;2023-02-28T10:29:19;1.50;99.90
19561;DHT22;9927;47.792;10.616;2023-02-28T10:31:47;1.40;99.90
19561;DHT22;9927;47.792;10.616;2023-02-28T10:34:14;1.40;99.90
19561;DHT22;9927;47.792;10.616;2023-02-28T10:36:42;1.70;99.90
19561;DHT22;9927;47.792;10.616;2023-02-28T10:39:40;1.70;99.90
19561;DHT22;9927;47.792;10.616;2023-02-28T10:42:21;1.80;99.90
19561;DHT22;9927;47.792;10.616;2023-02-28T10:44:48;1.50;99.90
19561;DHT22;9927;47.792;10.616;2023-02-28T10:47:17;1.50;99.90
19561;DHT22;9927;47.792;10.616;2023-02-28T10:49:50;1.50;99.90
19561;DHT22;9927;47.792;10.616;2023-02-28T10:52:39;1.60;99.90
19561;DHT22;9927;47.792;10.616;2023-02-28T10:55:24;1.60;99.90
19561;DHT22;9927;47.792;10.616;2023-02-28T10:57:52;1.40;99.90
19561;DHT22;9927;47.792;10.616;2023-02-28T11:00:22;1.40;99.90
19561;DHT22;9927;47.792;10.616;2023-02-28T11:02:49;0.90;99.90
19561;DHT22;9927;47.792;10.616;2023-02-28T11:05:31;1.10;99.90
19561;DHT22;9927;47.792;10.616;2023-02-28T11:08:06;1.30;99.90
19561;DHT22;9927;47.792;10.616;2023-02-28T11:10:34;1.60;99.90
19561;DHT22;9927;47.792;10.616;2023-02-28T11:13:02;1.60;99.90
19561;DHT22;9927;47.792;10.616;2023-02-28T11:15:32;1.40;99.90
19561;DHT22;9927;47.792;10.616;2023-02-28T11:20:38;1.40;99.90
19561;DHT22;9927;47.792;10.616;2023-02-28T11:23:11;1.40;99.90
19561;DHT22;9927;47.792;10.616;2023-02-28T11:25:50;1.40;99.90
19561;DHT22;9927;47.792;10.616;2023-02-28T11:28:40;1.40;99.90
19561;DHT22;9927;47.792;10.616;2023-02-28T11:33:49;1.50;99.90
19561;DHT22;9927;47.792;10.616;2023-02-28T11:36:22;1.10;99.90
19561;DHT22;9927;47.792;10.616;2023-02-28T11:38:54;0.90;99.90
19561;DHT22;9927;47.792;10.616;2023-02-28T11:46:52;1.10;99.90
19561;DHT22;9927;47.792;10.616;2023-02-28T11:49:43;1.20;99.90
19561;DHT22;9927;47.792;10.616;2023-02-28T11:52:34;1.30;99.90
19561;DHT22;9927;47.792;10.616;2023-02-28T12:03:15;1.60;99.90
19561;DHT22;9927;47.792;10.616;2023-02-28T12:05:49;1.50;99.90
19561;DHT22;9927;47.792;10.616;2023-02-28T12:08:31;1.30;99.90
19561;DHT22;9927;47.792;10.616;2023-02-28T12:14:46;1.40;99.90
19561;DHT22;9927;47.792;10.616;2023-02-28T12:27:51;1.40;99.90
19561;DHT22;9927;47.792;10.616;2023-02-28T12:30:31;1.20;99.90
19561;DHT22;9927;47.792;10.616;2023-02-28T12:33:09;1.20;99.90
19561;DHT22;9927;47.792;10.616;2023-02-28T12:35:58;1.20;99.90
19561;DHT22;9927;47.792;10.616;2023-02-28T12:38:34;1.20;99.90
19561;DHT22;9927;47.792;10.616;2023-02-28T12:41:09;1.20;99.90
19561;DHT22;9927;47.792;10.616;2023-02-28T12:43:51;1.20;99.90
19561;DHT22;9927;47.792;10.616;2023-02-28T12:46:24;1.40;99.90
19561;DHT22;9927;47.792;10.616;2023-02-28T12:48:57;1.40;99.90
19561;DHT22;9927;47.792;10.616;2023-02-28T12:51:26;1.30;99.90
19561;DHT22;9927;47.792;10.616;2023-02-28T12:56:48;1.40;99.90
19561;DHT22;9927;47.792;10.616;2023-02-28T12:59:32;1.30;99.90
19561;DHT22;9927;47.792;10.616;2023-02-28T13:10:48;1.50;99.90
19561;DHT22;9927;47.792;10.616;2023-02-28T13:13:27;1.40;99.90
19561;DHT22;9927;47.792;10.616;2023-02-28T13:15:59;1.50;99.90
19561;DHT22;9927;47.792;10.616;2023-02-28T13:18:38;1.50;99.90
19561;DHT22;9927;47.792;10.616;2023-02-28T13:21:08;1.10;99.90
19561;DHT22;9927;47.792;10.616;2023-02-28T13:24:03;1.10;99.90
19561;DHT22;9927;47.792;10.616;2023-02-28T13:34:40;1.00;99.90
19561;DHT22;9927;47.792;10.616;2023-02-28T13:39:58;0.90;99.90
19561;DHT22;9927;47.792;10.616;2023-02-28T13:47:42;0.70;99.90
19561;DHT22;9927;47.792;10.616;2023-02-28T14:06:48;0.50;99.90
19561;DHT22;9927;47.792;10.616;2023-02-28T14:11:55;0.70;99.90
19561;DHT22;9927;47.792;10.616;2023-02-28T14:17:07;1.00;99.90
19561;DHT22;9927;47.792;10.616;2023-02-28T14:19:37;1.00;99.90
19561;DHT22;9927;47.792;10.616;2023-02-28T14:22:43;0.70;99.90
19561;DHT22;9927;47.792;10.616;2023-02-28T14:31:06;0.80;99.90
19561;DHT22;9927;47.792;10.616;2023-02-28T14:33:57;0.80;99.90
19561;DHT22;9927;47.792;10.616;2023-02-28T14:36:39;0.90;99.90
19561;DHT22;9927;47.792;10.616;2023-02-28T14:41:36;1.00;99.90
19561;DHT22;9927;47.792;10.616;2023-02-28T14:44:26;0.80;99.90
19561;DHT22;9927;47.792;10.616;2023-02-28T14:46:56;0.90;99.90
19561;DHT22;9927;47.792;10.616;2023-02-28T14:49:32;0.80;99.90
19561;DHT22;9927;47.792;10.616;2023-02-28T14:54:32;1.20;99.90
19561;DHT22;9927;47.792;10.616;2023-02-28T14:57:00;1.40;99.90
19561;DHT22;9927;47.792;10.616;2023-02-28T14:59:29;1.50;99.90
19561;DHT22;9927;47.792;10.616;2023-02-28T15:02:20;1.60;99.90
19561;DHT22;9927;47.792;10.616;2023-02-28T15:07:22;1.80;99.90
19561;DHT22;9927;47.792;10.616;2023-02-28T15:10:20;1.90;99.90
19561;DHT22;9927;47.792;10.616;2023-02-28T15:12:58;1.70;99.90
19561;DHT22;9927;47.792;10.616;2023-02-28T15:15:52;1.60;99.90
19561;DHT22;9927;47.792;10.616;2023-02-28T15:21:08;1.50;99.90
19561;DHT22;9927;47.792;10.616;2023-02-28T15:23:41;1.50;99.90
19561;DHT22;9927;47.792;10.616;2023-02-28T15:26:15;1.70;99.90
19561;DHT22;9927;47.792;10.616;2023-02-28T15:28:44;1.70;99.90
19561;DHT22;9927;47.792;10.616;2023-02-28T15:31:26;1.30;99.90
19561;DHT22;9927;47.792;10.616;2023-02-28T15:33:58;1.30;99.90
19561;DHT22;9927;47.792;10.616;2023-02-28T15:36:30;1.20;99.90
19561;DHT22;9927;47.792;10.616;2023-02-28T15:39:00;1.30;99.90
19561;DHT22;9927;47.792;10.616;2023-02-28T15:41:42;1.40;99.90
19561;DHT22;9927;47.792;10.616;2023-02-28T15:44:26;1.30;99.90
19561;DHT22;9927;47.792;10.616;2023-02-28T15:47:02;1.30;99.90
19561;DHT22;9927;47.792;10.616;2023-02-28T15:49:45;1.40;99.90
19561;DHT22;9927;47.792;10.616;2023-02-28T15:52:22;1.30;99.90
19561;DHT22;9927;47.792;10.616;2023-02-28T15:54:51;1.30;99.90
19561;DHT22;9927;47.792;10.616;2023-02-28T15:57:22;1.30;99.90
19561;DHT22;9927;47.792;10.616;2023-02-28T15:59:56;1.30;99.90
19561;DHT22;9927;47.792;10.616;2023-02-28T16:02:36;1.10;99.90
19561;DHT22;9927;47.792;10.616;2023-02-28T16:07:42;1.20;99.90
19561;DHT22;9927;47.792;10.616;2023-02-28T16:10:16;1.20;99.90
19561;DHT22;9927;47.792;10.616;2023-02-28T16:12:43;1.20;99.90
19561;DHT22;9927;47.792;10.616;2023-02-28T16:15:20;1.20;99.90
19561;DHT22;9927;47.792;10.616;2023-02-28T16:17:49;1.00;99.90
19561;DHT22;9927;47.792;10.616;2023-02-28T16:20:22;0.80;99.90
19561;DHT22;9927;47.792;10.616;2023-02-28T16:22:50;0.70;99.90
19561;DHT22;9927;47.792;10.616;2023-02-28T16:25:19;0.50;99.90
19561;DHT22;9927;47.792;10.616;2023-02-28T16:27:54;0.40;99.90
19561;DHT22;9927;47.792;10.616;2023-02-28T16:30:26;0.20;99.90
19561;DHT22;9927;47.792;10.616;2023-02-28T16:32:55;0.20;99.90
19561;DHT22;9927;47.792;10.616;2023-02-28T16:35:23;0.10;99.90
19561;DHT22;9927;47.792;10.616;2023-02-28T16:37:51;0.10;99.90
19561;DHT22;9927;47.792;10.616;2023-02-28T16:40:22;0.00;99.90
19561;DHT22;9927;47.792;10.616;2023-02-28T16:42:51;-0.10;99.90
19561;DHT22;9927;47.792;10.616;2023-02-28T16:45:25;-0.20;99.90
19561;DHT22;9927;47.792;10.616;2023-02-28T16:47:54;-0.20;99.90
19561;DHT22;9927;47.792;10.616;2023-02-28T16:50:24;-0.10;99.90
19561;DHT22;9927;47.792;10.616;2023-02-28T16:52:52;-0.20;99.90
19561;DHT22;9927;47.792;10.616;2023-02-28T16:55:19;-0.20;99.90
19561;DHT22;9927;47.792;10.616;2023-02-28T16:57:57;-0.20;99.90
19561;DHT22;9927;47.792;10.616;2023-02-28T17:00:27;-0.30;99.90
19561;DHT22;9927;47.792;10.616;2023-02-28T17:02:55;-0.30;99.90
19561;DHT22;9927;47.792;10.616;2023-02-28T17:05:23;-0.40;99.90
19561;DHT22;9927;47.792;10.616;2023-02-28T17:07:51;-0.40;99.90
19561;DHT22;9927;47.792;10.616;2023-02-28T17:10:21;-0.40;99.90
19561;DHT22;9927;47.792;10.616;2023-02-28T17:12:49;-0.40;99.90
19561;DHT22;9927;47.792;10.616;2023-02-28T17:15:19;-0.40;99.90
19561;DHT22;9927;47.792;10.616;2023-02-28T17:17:47;-0.40;99.90
19561;DHT22;9927;47.792;10.616;2023-02-28T17:20:20;-0.40;99.90
19561;DHT22;9927;47.792;10.616;2023-02-28T17:22:52;-0.40;99.90
19561;DHT22;9927;47.792;10.616;2023-02-28T17:25:20;-0.40;99.90
19561;DHT22;9927;47.792;10.616;2023-02-28T17:27:48;-0.40;99.90
19561;DHT22;9927;47.792;10.616;2023-02-28T17:30:24;-0.50;99.90
19561;DHT22;9927;47.792;10.616;2023-02-28T17:32:51;-0.50;99.90
19561;DHT22;9927;47.792;10.616;2023-02-28T17:35:24;-0.60;99.90
19561;DHT22;9927;47.792;10.616;2023-02-28T17:37:53;-0.60;99.90
19561;DHT22;9927;47.792;10.616;2023-02-28T17:40:23;-0.60;99.90
19561;DHT22;9927;47.792;10.616;2023-02-28T17:42:50;-0.60;99.90
19561;DHT22;9927;47.792;10.616;2023-02-28T17:45:19;-0.80;99.90
19561;DHT22;9927;47.792;10.616;2023-02-28T17:47:48;-0.90;99.90
19561;DHT22;9927;47.792;10.616;2023-02-28T17:50:19;-0.90;99.90
19561;DHT22;9927;47.792;10.616;2023-02-28T17:52:49;-1.00;99.90
19561;DHT22;9927;47.792;10.616;2023-02-28T17:55:17;-1.00;99.90
19561;DHT22;9927;47.792;10.616;2023-02-28T17:57:46;-0.90;99.90
19561;DHT22;9927;47.792;10.616;2023-02-28T18:00:17;-1.00;99.90
19561;DHT22;9927;47.792;10.616;2023-02-28T18:02:45;-1.00;99.90
19561;DHT22;9927;47.792;10.616;2023-02-28T18:05:12;-1.20;99.90
19561;DHT22;9927;47.792;10.616;2023-02-28T18:07:39;-1.30;99.90
19561;DHT22;9927;47.792;10.616;2023-02-28T18:10:16;-1.40;99.90
19561;DHT22;9927;47.792;10.616;2023-02-28T18:12:47;-1.30;99.90
19561;DHT22;9927;47.792;10.616;2023-02-28T18:15:16;-1.40;99.90
19561;DHT22;9927;47.792;10.616;2023-02-28T18:17:43;-1.60;99.90
19561;DHT22;9927;47.792;10.616;2023-02-28T18:20:11;-1.60;99.90
19561;DHT22;9927;47.792;10.616;2023-02-28T18:22:39;-1.80;99.90
19561;DHT22;9927;47.792;10.616;2023-02-28T18:25:09;-1.90;99.90
19561;DHT22;9927;47.792;10.616;2023-02-28T18:27:40;-2.00;99.90
19561;DHT22;9927;47.792;10.616;2023-02-28T18:32:59;-2.30;99.90
19561;DHT22;9927;47.792;10.616;2023-02-28T18:35:27;-2.10;99.90
19561;DHT22;9927;47.792;10.616;2023-02-28T18:38:07;-1.90;99.90
19561;DHT22;9927;47.792;10.616;2023-02-28T18:40:35;-1.90;99.90
19561;DHT22;9927;47.792;10.616;2023-02-28T18:43:03;-1.80;99.90
19561;DHT22;9927;47.792;10.616;2023-02-28T18:45:34;-1.90;99.90
19561;DHT22;9927;47.792;10.616;2023-02-28T18:48:02;-1.90;99.90
19561;DHT22;9927;47.792;10.616;2023-02-28T18:50:29;-1.90;99.90
19561;DHT22;9927;47.792;10.616;2023-02-28T18:52:56;-2.00;99.90
19561;DHT22;9927;47.792;10.616;2023-02-28T18:55:25;-1.90;99.90
19561;DHT22;9927;47.792;10.616;2023-02-28T18:57:53;-1.90;99.90
19561;DHT22;9927;47.792;10.616;2023-02-28T19:00:21;-1.80;99.90
19561;DHT22;9927;47.792;10.616;2023-02-28T19:02:49;-1.60;99.90
19561;DHT22;9927;47.792;10.616;2023-02-28T19:05:17;-1.70;99.90
19561;DHT22;9927;47.792;10.616;2023-02-28T19:07:45;-1.90;99.90
19561;DHT22;9927;47.792;10.616;2023-02-28T19:10:13;-2.10;99.90
19561;DHT22;9927;47.792;10.616;2023-02-28T19:12:40;-2.00;99.90
19561;DHT22;9927;47.792;10.616;2023-02-28T19:15:11;-1.80;99.90
19561;DHT22;9927;47.792;10.616;2023-02-28T19:17:39;-1.60;99.90
19561;DHT22;9927;47.792;10.616;2023-02-28T19:20:07;-1.60;99.90
19561;DHT22;9927;47.792;10.616;2023-02-28T19:22:35;-1.50;99.90
19561;DHT22;9927;47.792;10.616;2023-02-28T19:25:06;-1.60;99.90
19561;DHT22;9927;47.792;10.616;2023-02-28T19:27:33;-1.60;99.90
19561;DHT22;9927;47.792;10.616;2023-02-28T19:30:01;-1.70;99.90
19561;DHT22;9927;47.792;10.616;2023-02-28T19:32:30;-1.70;99.90
19561;DHT22;9927;47.792;10.616;2023-02-28T19:34:57;-1.60;99.90
19561;DHT22;9927;47.792;10.616;2023-02-28T19:37:24;-1.60;99.90
19561;DHT22;9927;47.792;10.616;2023-02-28T19:39:52;-1.50;99.90
19561;DHT22;9927;47.792;10.616;2023-02-28T19:42:22;-1.50;99.90
19561;DHT22;9927;47.792;10.616;2023-02-28T19:44:50;-1.40;99.90
19561;DHT22;9927;47.792;10.616;2023-02-28T19:47:17;-1.30;99.90
19561;DHT22;9927;47.792;10.616;2023-02-28T19:49:45;-1.30;99.90
19561;DHT22;9927;47.792;10.616;2023-02-28T19:52:12;-1.20;99.90
19561;DHT22;9927;47.792;10.616;2023-02-28T19:54:41;-1.40;99.90
19561;DHT22;9927;47.792;10.616;2023-02-28T19:57:08;-1.40;99.90
19561;DHT22;9927;47.792;10.616;2023-02-28T19:59:36;-1.30;99.90
19561;DHT22;9927;47.792;10.616;2023-02-28T20:02:12;-1.30;99.90
19561;DHT22;9927;47.792;10.616;2023-02-28T20:04:40;-1.30;99.90
19561;DHT22;9927;47.792;10.616;2023-02-28T20:07:08;-1.30;99.90
19561;DHT22;9927;47.792;10.616;2023-02-28T20:09:35;-1.30;99.90
19561;DHT22;9927;47.792;10.616;2023-02-28T20:12:03;-1.20;99.90
19561;DHT22;9927;47.792;10.616;2023-02-28T20:14:35;-1.10;99.90
19561;DHT22;9927;47.792;10.616;2023-02-28T20:17:02;-1.10;99.90
19561;DHT22;9927;47.792;10.616;2023-02-28T20:19:29;-1.20;99.90
19561;DHT22;9927;47.792;10.616;2023-02-28T20:21:57;-1.10;99.90
19561;DHT22;9927;47.792;10.616;2023-02-28T20:24:24;-1.10;99.90
19561;DHT22;9927;47.792;10.616;2023-02-28T20:26:52;-1.10;99.90
19561;DHT22;9927;47.792;10.616;2023-02-28T20:29:20;-1.10;99.90
19561;DHT22;9927;47.792;10.616;2023-02-28T20:31:47;-1.10;99.90
19561;DHT22;9927;47.792;10.616;2023-02-28T20:34:14;-1.10;99.90
19561;DHT22;9927;47.792;10.616;2023-02-28T20:36:43;-1.20;99.90
19561;DHT22;9927;47.792;10.616;2023-02-28T20:39:10;-1.20;99.90
19561;DHT22;9927;47.792;10.616;2023-02-28T20:41:39;-1.00;99.90
19561;DHT22;9927;47.792;10.616;2023-02-28T20:44:11;-0.90;99.90
19561;DHT22;9927;47.792;10.616;2023-02-28T20:46:39;-1.00;99.90
19561;DHT22;9927;47.792;10.616;2023-02-28T20:49:07;-1.00;99.90
19561;DHT22;9927;47.792;10.616;2023-02-28T20:51:35;-0.90;99.90
19561;DHT22;9927;47.792;10.616;2023-02-28T20:54:07;-0.90;99.90
19561;DHT22;9927;47.792;10.616;2023-02-28T20:56:34;-1.10;99.90
19561;DHT22;9927;47.792;10.616;2023-02-28T20:59:02;-1.20;99.90
19561;DHT22;9927;47.792;10.616;2023-02-28T21:01:29;-0.90;99.90
19561;DHT22;9927;47.792;10.616;2023-02-28T21:03:59;-0.90;99.90
19561;DHT22;9927;47.792;10.616;2023-02-28T21:06:29;-0.70;99.90
19561;DHT22;9927;47.792;10.616;2023-02-28T21:08:57;-0.90;99.90
19561;DHT22;9927;47.792;10.616;2023-02-28T21:11:27;-0.80;99.90
19561;DHT22;9927;47.792;10.616;2023-02-28T21:13:57;-0.90;99.90
19561;DHT22;9927;47.792;10.616;2023-02-28T21:16:25;-0.90;99.90
19561;DHT22;9927;47.792;10.616;2023-02-28T21:18:53;-1.00;99.90
19561;DHT22;9927;47.792;10.616;2023-02-28T21:21:23;-0.90;99.90
19561;DHT22;9927;47.792;10.616;2023-02-28T21:23:51;-0.90;99.90
19561;DHT22;9927;47.792;10.616;2023-02-28T21:26:20;-1.00;99.90
19561;DHT22;9927;47.792;10.616;2023-02-28T21:28:53;-0.90;99.90
19561;DHT22;9927;47.792;10.616;2023-02-28T21:31:22;-1.00;99.90
19561;DHT22;9927;47.792;10.616;2023-02-28T21:33:52;-1.10;99.90
19561;DHT22;9927;47.792;10.616;2023-02-28T21:36:21;-1.20;99.90
19561;DHT22;9927;47.792;10.616;2023-02-28T21:38:54;-1.10;99.90
19561;DHT22;9927;47.792;10.616;2023-02-28T21:41:23;-1.10;99.90
19561;DHT22;9927;47.792;10.616;2023-02-28T21:43:50;-1.00;99.90
19561;DHT22;9927;47.792;10.616;2023-02-28T21:46:20;-0.90;99.90
19561;DHT22;9927;47.792;10.616;2023-02-28T21:48:48;-0.80;99.90
19561;DHT22;9927;47.792;10.616;2023-02-28T21:51:18;-0.80;99.90